createdAt,value
2019-02-06T00:00:41.272Z,84.17
2019-02-06T00:03:12.387Z,84.20
2019-02-06T00:05:42.151Z,84.20
2019-02-06T00:08:12.149Z,84.15
2019-02-06T00:10:42.152Z,84.09
2019-02-06T00:13:12.070Z,84.03
2019-02-06T00:15:41.824Z,84.00
2019-02-06T00:18:11.971Z,83.95
2019-02-06T00:20:41.820Z,83.96
2019-02-06T00:23:11.477Z,83.93
2019-02-06T00:25:41.976Z,83.93
2019-02-06T00:28:11.642Z,83.88
2019-02-06T00:30:41.480Z,83.84
2019-02-06T00:33:11.762Z,83.87
2019-02-06T00:35:42.109Z,83.81
2019-02-06T00:38:12.024Z,83.74
2019-02-06T00:40:42.126Z,83.63
2019-02-06T00:43:12.351Z,83.61
2019-02-06T00:45:42.425Z,83.61
2019-02-06T00:48:12.518Z,83.61
2019-02-06T00:50:42.278Z,83.68
2019-02-06T00:53:11.971Z,83.77
2019-02-06T00:55:41.746Z,83.83
2019-02-06T00:58:11.437Z,83.97
2019-02-06T01:00:41.912Z,83.93
2019-02-06T01:03:11.886Z,83.94
2019-02-06T01:05:41.970Z,83.91
2019-02-06T01:08:11.997Z,83.87
2019-02-06T01:10:41.744Z,83.75
2019-02-06T01:13:11.548Z,83.64
2019-02-06T01:15:41.829Z,83.57
2019-02-06T01:18:11.566Z,83.54
2019-02-06T01:20:41.300Z,83.51
2019-02-06T01:23:11.014Z,83.45
2019-02-06T01:25:42.620Z,83.39
2019-02-06T01:28:12.637Z,83.37
2019-02-06T01:30:54.822Z,83.29
2019-02-06T01:33:24.638Z,83.23
2019-02-06T01:35:54.301Z,83.13
2019-02-06T01:38:23.980Z,83.18
2019-02-06T01:40:53.657Z,83.16
2019-02-06T01:43:23.665Z,83.09
2019-02-06T01:45:53.328Z,83.04
2019-02-06T01:48:23.248Z,83.05
2019-02-06T01:50:53.153Z,83.00
2019-02-06T01:53:22.888Z,82.88
2019-02-06T01:55:52.586Z,82.81
2019-02-06T01:58:22.436Z,82.84
2019-02-06T02:00:52.184Z,82.86
2019-02-06T02:03:22.194Z,82.90
2019-02-06T02:06:01.732Z,82.94
2019-02-06T02:08:23.493Z,82.97
2019-02-06T02:10:53.165Z,82.97
2019-02-06T02:13:23.480Z,83.02
2019-02-06T02:15:53.139Z,83.10
2019-02-06T02:18:23.052Z,83.20
2019-02-06T02:20:52.709Z,83.19
2019-02-06T02:23:22.451Z,83.08
2019-02-06T02:25:52.834Z,83.07
2019-02-06T02:28:22.732Z,83.00
2019-02-06T02:30:55.437Z,82.94
2019-02-06T02:33:25.186Z,82.96
2019-02-06T02:35:55.398Z,82.90
2019-02-06T02:38:25.193Z,82.98
2019-02-06T02:40:55.451Z,82.93
2019-02-06T02:43:25.067Z,82.95
2019-02-06T02:45:55.465Z,82.86
2019-02-06T02:48:25.133Z,82.81
2019-02-06T02:50:55.446Z,82.79
2019-02-06T02:53:26.156Z,82.68
2019-02-06T02:55:55.972Z,82.61
2019-02-06T02:58:25.662Z,82.49
2019-02-06T03:01:14.589Z,82.33
2019-02-06T03:04:03.432Z,82.25
2019-02-06T03:06:33.179Z,82.19
2019-02-06T03:09:03.210Z,82.07
2019-02-06T03:11:34.802Z,82.07
2019-02-06T03:14:05.542Z,81.87
2019-02-06T03:16:35.562Z,81.75
2019-02-06T03:19:06.277Z,81.72
2019-02-06T03:21:36.260Z,81.53
2019-02-06T03:24:06.384Z,81.32
2019-02-06T03:26:36.139Z,81.14
2019-02-06T03:29:05.875Z,80.91
2019-02-06T03:31:35.891Z,80.84
2019-02-06T03:34:05.706Z,80.76
2019-02-06T03:36:40.330Z,80.66
2019-02-06T03:39:09.399Z,80.65
2019-02-06T03:41:39.402Z,80.49
2019-02-06T03:44:09.420Z,80.39
2019-02-06T03:46:39.452Z,80.30
2019-02-06T03:49:09.338Z,80.12
2019-02-06T03:51:40.480Z,79.88
2019-02-06T03:54:10.309Z,79.67
2019-02-06T03:56:41.081Z,79.75
2019-02-06T03:59:11.045Z,79.71
2019-02-06T04:01:40.789Z,79.46
2019-02-06T04:04:10.659Z,79.19
2019-02-06T04:06:52.736Z,78.90
2019-02-06T04:09:12.308Z,78.49
2019-02-06T04:11:41.981Z,78.37
2019-02-06T04:14:12.650Z,77.98
2019-02-06T04:16:43.672Z,77.29
2019-02-06T04:19:14.213Z,77.22
2019-02-06T04:21:44.944Z,77.00
2019-02-06T04:24:14.617Z,76.83
2019-02-06T04:26:44.649Z,76.59
2019-02-06T04:29:14.396Z,76.35
2019-02-06T04:31:44.312Z,76.14
2019-02-06T04:34:14.008Z,75.45
2019-02-06T04:36:43.896Z,75.31
2019-02-06T04:39:13.494Z,75.11
2019-02-06T04:41:43.442Z,74.83
2019-02-06T04:44:13.306Z,74.05
2019-02-06T04:46:42.983Z,73.96
2019-02-06T04:49:12.879Z,73.73
2019-02-06T04:51:42.550Z,73.71
2019-02-06T04:54:13.317Z,73.54
2019-02-06T04:56:44.365Z,73.35
2019-02-06T04:59:14.053Z,73.32
2019-02-06T05:01:43.711Z,73.18
2019-02-06T05:04:13.684Z,72.83
2019-02-06T05:06:43.598Z,72.43
2019-02-06T05:09:13.257Z,71.85
2019-02-06T05:11:43.247Z,72.04
2019-02-06T05:14:12.905Z,71.75
2019-02-06T05:16:42.573Z,72.02
2019-02-06T05:19:12.248Z,71.71
2019-02-06T05:21:43.098Z,71.62
2019-02-06T05:24:12.852Z,71.65
2019-02-06T05:26:42.628Z,71.63
2019-02-06T05:29:12.303Z,71.41
2019-02-06T05:31:42.196Z,71.33
2019-02-06T05:34:11.857Z,71.71
2019-02-06T05:36:41.517Z,71.54
2019-02-06T05:39:12.249Z,71.71
2019-02-06T05:41:42.183Z,71.69
2019-02-06T05:44:11.881Z,71.90
2019-02-06T05:46:41.632Z,71.84
2019-02-06T05:49:12.410Z,71.16
2019-02-06T05:51:42.081Z,71.16
2019-02-06T05:54:11.996Z,71.89
2019-02-06T05:56:41.674Z,71.62
2019-02-06T05:59:11.469Z,71.84
2019-02-06T06:01:41.250Z,71.96
2019-02-06T06:04:11.008Z,71.84
2019-02-06T06:06:40.766Z,72.14
2019-02-06T06:09:10.791Z,72.16
2019-02-06T06:11:40.769Z,72.22
2019-02-06T06:14:10.437Z,72.29
2019-02-06T06:16:40.357Z,72.16
2019-02-06T06:19:10.325Z,72.15
2019-02-06T06:21:40.367Z,71.93
2019-02-06T06:24:10.107Z,72.01
2019-02-06T06:26:40.439Z,72.28
2019-02-06T06:29:10.849Z,72.24
2019-02-06T06:31:41.560Z,72.31
2019-02-06T06:34:11.602Z,72.30
2019-02-06T06:39:22.699Z,72.47
2019-02-06T06:41:52.389Z,72.44
2019-02-06T06:44:22.066Z,72.50
2019-02-06T06:46:51.741Z,72.48
2019-02-06T06:49:21.397Z,72.53
2019-02-06T06:51:51.090Z,72.41
2019-02-06T06:54:20.756Z,72.66
2019-02-06T06:56:50.515Z,72.62
2019-02-06T06:59:20.333Z,72.55
2019-02-06T07:01:50.148Z,72.78
2019-02-06T07:04:20.109Z,72.76
2019-02-06T07:06:50.008Z,72.58
2019-02-06T07:09:19.929Z,72.91
2019-02-06T07:11:49.588Z,72.61
2019-02-06T07:14:19.720Z,72.43
2019-02-06T07:16:49.365Z,72.54
2019-02-06T07:19:19.051Z,72.70
2019-02-06T07:21:48.764Z,72.57
2019-02-06T07:24:18.445Z,71.86
2019-02-06T07:26:49.400Z,72.03
2019-02-06T07:29:19.110Z,71.61
2019-02-06T07:31:49.745Z,71.79
2019-02-06T07:34:19.814Z,71.58
2019-02-06T07:36:50.272Z,71.58
2019-02-06T07:39:21.014Z,71.87
2019-02-06T07:41:50.754Z,71.97
2019-02-06T07:44:20.512Z,71.93
2019-02-06T07:46:50.172Z,71.94
2019-02-06T07:49:19.865Z,71.85
2019-02-06T07:51:50.462Z,71.78
2019-02-06T07:54:20.261Z,71.60
2019-02-06T07:56:49.947Z,71.55
2019-02-06T07:59:19.605Z,71.23
2019-02-06T08:01:49.797Z,70.62
2019-02-06T08:04:19.469Z,70.88
2019-02-06T08:06:50.330Z,70.88
2019-02-06T08:09:23.375Z,70.61
2019-02-06T08:11:53.124Z,70.48
2019-02-06T08:14:22.897Z,70.24
2019-02-06T08:16:53.242Z,69.66
2019-02-06T08:19:22.906Z,69.50
2019-02-06T08:21:52.587Z,69.58
2019-02-06T08:24:22.273Z,68.69
2019-02-06T08:26:52.265Z,68.55
2019-02-06T08:29:22.086Z,68.85
2019-02-06T08:31:51.753Z,68.85
2019-02-06T08:34:21.716Z,68.68
2019-02-06T08:36:51.444Z,68.08
2019-02-06T08:39:21.107Z,68.36
2019-02-06T08:41:50.804Z,68.12
2019-02-06T08:44:20.509Z,68.11
2019-02-06T08:46:50.178Z,67.38
2019-02-06T08:49:20.124Z,67.51
2019-02-06T08:51:49.785Z,67.46
2019-02-06T08:54:20.379Z,67.15
2019-02-06T08:56:50.309Z,67.54
2019-02-06T08:59:19.981Z,67.58
2019-02-06T09:01:49.661Z,67.07
2019-02-06T09:04:19.637Z,67.48
2019-02-06T09:06:49.313Z,67.59
2019-02-06T09:09:19.305Z,68.21
2019-02-06T09:11:49.220Z,68.54
2019-02-06T09:14:19.092Z,68.37
2019-02-06T09:16:48.764Z,68.79
2019-02-06T09:19:18.512Z,68.92
2019-02-06T09:21:48.370Z,68.98
2019-02-06T09:24:18.025Z,68.66
2019-02-06T09:26:47.973Z,69.72
2019-02-06T09:29:17.720Z,69.94
2019-02-06T09:31:47.410Z,70.24
2019-02-06T09:34:17.576Z,70.54
2019-02-06T09:36:47.234Z,70.74
2019-02-06T09:39:16.918Z,71.26
2019-02-06T09:41:46.730Z,71.38
2019-02-06T09:44:16.617Z,71.71
2019-02-06T09:46:46.287Z,72.11
2019-02-06T09:49:16.317Z,72.87
2019-02-06T09:51:46.456Z,72.93
2019-02-06T09:54:17.116Z,73.00
2019-02-06T09:56:47.051Z,73.37
2019-02-06T09:59:17.004Z,73.65
2019-02-06T10:01:46.686Z,73.84
2019-02-06T10:04:17.152Z,74.02
2019-02-06T10:06:46.827Z,74.70
2019-02-06T10:09:22.880Z,74.67
2019-02-06T10:11:48.020Z,74.82
2019-02-06T10:14:17.946Z,75.10
2019-02-06T10:16:47.609Z,75.35
2019-02-06T10:19:17.553Z,75.76
2019-02-06T10:21:50.371Z,76.41
2019-02-06T10:24:19.318Z,76.54
2019-02-06T10:27:06.945Z,76.38
2019-02-06T10:29:36.728Z,76.98
2019-02-06T10:32:07.219Z,77.87
2019-02-06T10:34:37.133Z,78.72
2019-02-06T10:37:07.402Z,79.05
2019-02-06T10:39:37.087Z,79.37
2019-02-06T10:42:06.892Z,79.74
2019-02-06T10:44:37.542Z,80.01
2019-02-06T10:47:07.361Z,80.29
2019-02-06T10:49:37.270Z,80.38
2019-02-06T10:52:07.694Z,80.94
2019-02-06T10:54:37.361Z,81.23
2019-02-06T10:57:10.051Z,81.53
2019-02-06T10:59:41.788Z,81.77
2019-02-06T11:02:12.309Z,82.17
2019-02-06T11:04:42.203Z,82.53
2019-02-06T11:07:12.542Z,82.64
2019-02-06T11:09:45.896Z,82.73
2019-02-06T11:12:15.103Z,82.89
2019-02-06T11:14:45.516Z,83.16
2019-02-06T11:17:15.189Z,83.28
2019-02-06T11:19:44.929Z,83.51
2019-02-06T11:22:14.704Z,83.77
2019-02-06T11:24:44.376Z,84.03
2019-02-06T11:27:15.673Z,84.22
2019-02-06T11:29:48.263Z,84.02
2019-02-06T11:32:16.873Z,84.03
2019-02-06T11:34:46.772Z,83.96
2019-02-06T11:37:16.828Z,84.07
2019-02-06T11:39:57.265Z,84.04
2019-02-06T11:42:19.184Z,84.24
2019-02-06T11:44:48.977Z,84.34
2019-02-06T11:47:19.114Z,84.34
2019-02-06T11:49:51.048Z,84.09
2019-02-06T11:52:22.225Z,83.85
2019-02-06T11:54:51.910Z,83.73
2019-02-06T11:57:24.167Z,83.67
2019-02-06T11:59:53.274Z,83.50
2019-02-06T12:02:36.697Z,83.36
2019-02-06T12:04:56.477Z,83.46
2019-02-06T12:07:26.144Z,83.41
2019-02-06T12:09:55.890Z,83.53
2019-02-06T12:12:25.546Z,83.68
2019-02-06T12:14:55.477Z,84.09
2019-02-06T12:17:25.146Z,84.11
2019-02-06T12:19:54.848Z,84.10
2019-02-06T12:22:24.515Z,84.11
2019-02-06T12:24:54.430Z,84.17
2019-02-06T12:27:24.180Z,84.39
2019-02-06T12:29:54.824Z,84.59
2019-02-06T12:32:24.536Z,84.62
2019-02-06T12:34:54.372Z,84.79
2019-02-06T12:37:24.172Z,84.75
2019-02-06T12:39:53.836Z,84.84
2019-02-06T12:42:23.886Z,84.87
2019-02-06T12:44:53.697Z,84.87
2019-02-06T12:47:23.447Z,84.97
2019-02-06T12:49:53.133Z,84.98
2019-02-06T12:52:23.252Z,84.98
2019-02-06T12:54:53.117Z,85.02
2019-02-06T12:57:22.938Z,85.14
2019-02-06T12:59:52.700Z,85.17
2019-02-06T13:02:22.521Z,85.32
2019-02-06T13:04:52.253Z,85.16
2019-02-06T13:07:21.946Z,85.15
2019-02-06T13:09:51.790Z,85.27
2019-02-06T13:12:22.418Z,85.24
2019-02-06T13:14:52.356Z,85.11
2019-02-06T13:17:22.034Z,84.97
2019-02-06T13:19:51.721Z,84.99
2019-02-06T13:22:21.402Z,84.80
2019-02-06T13:24:51.522Z,84.79
2019-02-06T13:27:21.198Z,84.84
2019-02-06T13:29:50.882Z,84.84
2019-02-06T13:32:22.058Z,84.76
2019-02-06T13:34:51.739Z,84.83
2019-02-06T13:37:22.145Z,84.82
2019-02-06T13:39:52.067Z,84.64
2019-02-06T13:42:22.350Z,84.50
2019-02-06T13:44:52.489Z,84.44
2019-02-06T13:47:22.637Z,84.54
2019-02-06T13:49:52.315Z,84.33
2019-02-06T13:52:23.052Z,84.36
2019-02-06T13:54:52.900Z,84.60
2019-02-06T13:57:33.443Z,84.75
2019-02-06T13:59:54.470Z,84.67
2019-02-06T14:02:24.313Z,84.51
2019-02-06T14:04:53.993Z,84.33
2019-02-06T14:07:23.741Z,84.33
2019-02-06T14:09:53.498Z,84.37
2019-02-06T14:12:23.582Z,84.38
2019-02-06T14:14:54.326Z,84.41
2019-02-06T14:17:24.141Z,84.24
2019-02-06T14:19:54.252Z,84.21
2019-02-06T14:22:24.275Z,84.23
2019-02-06T14:24:58.346Z,84.19
2019-02-06T14:28:02.714Z,84.08
2019-02-06T14:31:02.729Z,84.42
2019-02-06T14:33:42.983Z,84.42
2019-02-06T14:37:01.417Z,84.36
2019-02-06T14:40:15.127Z,84.28
2019-02-06T14:43:16.053Z,84.31
2019-02-06T14:46:12.630Z,84.19
2019-02-06T14:49:37.597Z,84.08
2019-02-06T14:52:39.689Z,84.05
2019-02-06T14:55:41.109Z,83.93
2019-02-06T14:58:59.629Z,84.01
2019-02-06T15:02:10.244Z,83.90
2019-02-06T15:05:13.791Z,83.80
2019-02-06T15:08:22.873Z,83.81
2019-02-06T15:11:21.589Z,83.82
2019-02-06T15:14:17.615Z,83.81
2019-02-06T15:17:15.923Z,83.80
2019-02-06T15:20:15.300Z,83.98
2019-02-06T15:23:03.856Z,83.88
2019-02-06T15:25:55.235Z,83.73
2019-02-06T15:28:48.245Z,83.86
2019-02-06T15:31:50.180Z,83.92
2019-02-06T15:34:37.788Z,83.90
2019-02-06T15:37:29.746Z,83.96
2019-02-06T15:40:48.833Z,83.99
2019-02-06T15:43:48.075Z,83.97
2019-02-06T15:49:37.402Z,84.36
2019-02-06T15:52:25.268Z,84.76
2019-02-06T15:55:34.082Z,85.02
2019-02-06T15:58:27.412Z,85.35
2019-02-06T16:01:52.876Z,85.59
2019-02-06T16:05:24.720Z,85.71
2019-02-06T16:12:28.418Z,85.72
2019-02-06T16:15:13.017Z,85.64
2019-02-06T16:18:28.548Z,85.69
2019-02-06T16:21:52.495Z,85.81
2019-02-06T16:25:05.632Z,85.72
2019-02-06T16:28:00.858Z,85.67
2019-02-06T16:30:57.650Z,85.76
2019-02-06T16:34:06.422Z,85.77
2019-02-06T16:37:26.216Z,85.76
2019-02-06T16:40:21.706Z,85.60
2019-02-06T16:43:25.241Z,85.59
2019-02-06T16:46:23.677Z,85.56
2019-02-06T16:49:20.741Z,85.64
2019-02-06T16:52:09.824Z,85.67
2019-02-06T16:55:05.144Z,85.63
2019-02-06T16:57:57.805Z,85.63
2019-02-06T17:01:00.997Z,85.57
2019-02-06T17:03:54.842Z,85.44
2019-02-06T17:07:10.500Z,85.31
2019-02-06T17:10:19.651Z,85.17
2019-02-06T17:13:29.914Z,84.98
2019-02-06T17:16:21.393Z,84.90
2019-02-06T17:19:27.266Z,84.78
2019-02-06T17:22:27.959Z,84.71
2019-02-06T17:25:35.202Z,84.56
2019-02-06T17:28:43.364Z,84.33
2019-02-06T17:31:46.737Z,84.13
2019-02-06T17:34:47.810Z,83.64
2019-02-06T17:37:54.509Z,83.42
2019-02-06T17:41:04.822Z,83.17
2019-02-06T17:43:51.547Z,83.18
2019-02-06T17:46:48.966Z,83.24
2019-02-06T17:49:55.381Z,83.28
2019-02-06T17:52:40.713Z,83.39
2019-02-06T17:55:19.989Z,83.54
2019-02-06T17:57:51.780Z,83.61
2019-02-06T18:00:53.249Z,83.89
2019-02-06T18:06:16.568Z,84.40
2019-02-06T18:08:56.489Z,84.49
2019-02-06T18:11:18.269Z,84.55
2019-02-06T18:13:48.313Z,84.72
2019-02-06T18:16:21.496Z,84.87
2019-02-06T18:18:49.972Z,85.00
2019-02-06T18:21:20.211Z,85.07
2019-02-06T18:23:49.884Z,85.11
2019-02-06T18:26:19.906Z,85.21
2019-02-06T18:28:50.842Z,85.41
2019-02-06T18:31:20.592Z,85.51
2019-02-06T18:33:50.781Z,85.66
2019-02-06T18:36:20.540Z,85.73
2019-02-06T18:38:56.163Z,85.78
2019-02-06T18:41:26.246Z,85.69
2019-02-06T18:43:56.277Z,85.69
2019-02-06T18:46:26.113Z,85.76
2019-02-06T18:48:56.001Z,85.74
2019-02-06T18:51:26.368Z,85.67
2019-02-06T18:53:57.867Z,85.62
2019-02-06T18:56:27.655Z,85.55
2019-02-06T18:58:57.329Z,85.58
2019-02-06T19:01:27.388Z,85.65
2019-02-06T19:03:57.081Z,85.67
2019-02-06T19:06:27.263Z,85.62
2019-02-06T19:09:02.064Z,85.55
2019-02-06T19:11:37.418Z,85.59
2019-02-06T19:14:07.458Z,85.73
2019-02-06T19:16:37.569Z,85.93
2019-02-06T19:19:07.609Z,86.03
2019-02-06T19:21:37.495Z,86.09
2019-02-06T19:24:07.516Z,86.10
2019-02-06T19:26:37.202Z,86.03
2019-02-06T19:29:06.953Z,85.99
2019-02-06T19:31:39.699Z,85.97
2019-02-06T19:34:33.603Z,85.90
2019-02-06T19:37:03.374Z,85.87
2019-02-06T19:39:33.089Z,85.79
2019-02-06T19:42:02.757Z,85.94
2019-02-06T19:44:32.518Z,85.93
2019-02-06T19:47:03.043Z,86.02
2019-02-06T19:49:32.875Z,86.04
2019-02-06T19:52:03.239Z,86.18
2019-02-06T19:54:32.982Z,86.28
2019-02-06T19:57:02.662Z,86.26
2019-02-06T19:59:32.406Z,86.15
2019-02-06T20:02:02.188Z,86.15
2019-02-06T20:04:32.200Z,86.43
2019-02-06T20:07:02.773Z,86.43
2019-02-06T20:09:32.971Z,86.27
2019-02-06T20:12:02.803Z,86.33
2019-02-06T20:14:32.474Z,86.30
2019-02-06T20:17:02.533Z,86.34
2019-02-06T20:19:32.958Z,86.36
2019-02-06T20:22:02.895Z,86.40
2019-02-06T20:24:32.575Z,86.43
2019-02-06T20:27:02.258Z,86.43
2019-02-06T20:29:31.971Z,86.62
2019-02-06T20:32:01.717Z,86.65
2019-02-06T20:34:31.816Z,86.72
2019-02-06T20:37:01.495Z,86.74
2019-02-06T20:39:33.242Z,86.70
2019-02-06T20:42:05.250Z,86.68
2019-02-06T20:44:34.945Z,86.71
2019-02-06T20:47:05.040Z,86.75
2019-02-06T20:52:29.191Z,86.75
2019-02-06T20:54:58.883Z,86.78
2019-02-06T20:57:28.645Z,86.70
2019-02-06T21:00:17.859Z,86.81
2019-02-06T21:02:51.129Z,86.89
2019-02-06T21:05:21.490Z,86.91
2019-02-06T21:07:51.829Z,86.96
2019-02-06T21:10:23.740Z,87.14
2019-02-06T21:12:55.542Z,87.18
2019-02-06T21:15:25.732Z,87.32
2019-02-06T21:17:55.475Z,87.69
2019-02-06T21:20:25.317Z,87.72
2019-02-06T21:22:54.981Z,87.99
2019-02-06T21:25:25.077Z,87.89
2019-02-06T21:27:54.874Z,87.94
2019-02-06T21:30:26.530Z,88.25
2019-02-06T21:32:56.351Z,88.23
2019-02-06T21:35:26.102Z,88.19
2019-02-06T21:37:55.792Z,88.10
2019-02-06T21:40:27.341Z,88.04
2019-02-06T21:42:57.545Z,88.03
2019-02-06T21:48:09.403Z,87.90
2019-02-06T21:50:39.869Z,87.88
2019-02-06T21:53:09.752Z,87.86
2019-02-06T21:55:39.736Z,87.83
2019-02-06T21:58:09.410Z,87.77
2019-02-06T22:00:40.769Z,87.63
2019-02-06T22:03:10.963Z,87.52
2019-02-06T22:05:41.943Z,87.46
2019-02-06T22:08:11.635Z,87.37
2019-02-06T22:10:43.680Z,87.30
2019-02-06T22:13:14.101Z,87.41
2019-02-06T22:15:45.879Z,87.30
2019-02-06T22:18:15.551Z,87.22
2019-02-06T22:20:45.405Z,87.18
2019-02-06T22:23:15.174Z,87.32
2019-02-06T22:25:44.852Z,87.48
2019-02-06T22:28:14.555Z,87.55
2019-02-06T22:30:45.261Z,87.61
2019-02-06T22:33:15.048Z,87.82
2019-02-06T22:35:44.739Z,87.76
2019-02-06T22:38:15.565Z,87.86
2019-02-06T22:40:45.236Z,87.84
2019-02-06T22:43:15.418Z,88.02
2019-02-06T22:45:45.544Z,88.12
2019-02-06T22:48:15.232Z,88.09
2019-02-06T22:50:45.192Z,88.09
2019-02-06T22:53:15.013Z,88.21
2019-02-06T22:55:44.936Z,88.21
2019-02-06T22:58:15.277Z,88.09
2019-02-06T23:01:13.697Z,88.19
2019-02-06T23:03:45.501Z,88.26
2019-02-06T23:06:15.344Z,88.22
2019-02-06T23:08:45.945Z,88.39
2019-02-06T23:11:15.804Z,88.44
2019-02-06T23:13:46.830Z,88.61
2019-02-06T23:16:16.795Z,88.62
2019-02-06T23:18:46.548Z,88.76
2019-02-06T23:21:17.017Z,88.73
2019-02-06T23:23:47.032Z,88.78
2019-02-06T23:26:16.777Z,88.66
2019-02-06T23:28:54.769Z,88.54
2019-02-06T23:31:24.440Z,88.62
2019-02-06T23:33:54.395Z,88.61
2019-02-06T23:36:24.092Z,88.60
2019-02-06T23:38:53.930Z,88.47
2019-02-06T23:41:24.069Z,88.51
2019-02-06T23:43:54.248Z,88.57
2019-02-06T23:46:24.411Z,88.69
2019-02-06T23:48:54.266Z,88.70
2019-02-06T23:51:24.215Z,88.60
2019-02-06T23:53:54.270Z,88.73
2019-02-06T23:56:24.922Z,88.78
2019-02-06T23:58:54.591Z,88.73
